createdAt,value
2018-12-05T00:00:53.041Z,3.90
2018-12-05T00:03:18.980Z,3.53
2018-12-05T00:05:44.928Z,3.47
2018-12-05T00:08:10.878Z,3.33
2018-12-05T00:10:36.933Z,3.87
2018-12-05T00:13:03.100Z,4.20
2018-12-05T00:15:29.039Z,3.83
2018-12-05T00:17:55.089Z,3.57
2018-12-05T00:20:21.165Z,3.40
2018-12-05T00:22:47.207Z,3.20
2018-12-05T00:25:13.147Z,3.53
2018-12-05T00:27:39.095Z,3.30
2018-12-05T00:30:05.441Z,3.57
2018-12-05T00:32:31.400Z,4.40
2018-12-05T00:34:57.354Z,3.67
2018-12-05T00:37:23.301Z,4.03
2018-12-05T00:39:49.275Z,3.30
2018-12-05T00:42:15.213Z,3.67
2018-12-05T00:44:41.157Z,3.40
2018-12-05T00:47:07.106Z,3.20
2018-12-05T00:49:33.053Z,3.97
2018-12-05T00:51:58.985Z,3.47
2018-12-05T00:54:24.915Z,3.90
2018-12-05T00:56:50.869Z,4.47
2018-12-05T00:59:16.800Z,4.50
2018-12-05T01:01:42.848Z,4.67
2018-12-05T01:04:08.798Z,4.17
2018-12-05T01:06:34.831Z,5.60
2018-12-05T01:09:00.774Z,5.00
2018-12-05T01:11:26.920Z,5.20
2018-12-05T01:13:52.841Z,5.00
2018-12-05T01:16:18.884Z,4.50
2018-12-05T01:18:44.828Z,5.57
2018-12-05T01:21:10.884Z,4.60
2018-12-05T01:23:36.932Z,4.90
2018-12-05T01:26:02.980Z,4.17
2018-12-05T01:28:28.921Z,4.07
2018-12-05T01:30:54.978Z,4.33
2018-12-05T01:33:20.914Z,3.77
2018-12-05T01:35:47.093Z,3.63
2018-12-05T01:38:13.149Z,3.23
2018-12-05T01:40:39.113Z,3.73
2018-12-05T01:43:05.090Z,3.20
2018-12-05T01:45:31.210Z,2.67
2018-12-05T01:47:57.165Z,2.87
2018-12-05T01:50:23.111Z,3.43
2018-12-05T01:52:49.069Z,3.47
2018-12-05T01:55:15.013Z,2.93
2018-12-05T01:57:40.948Z,2.80
2018-12-05T02:00:07.105Z,2.33
2018-12-05T02:02:33.157Z,3.00
2018-12-05T02:04:59.109Z,2.70
2018-12-05T02:07:25.249Z,2.90
2018-12-05T02:09:51.309Z,2.70
2018-12-05T02:12:17.464Z,2.63
2018-12-05T02:14:43.417Z,2.30
2018-12-05T02:17:09.396Z,2.63
2018-12-05T02:19:35.441Z,2.60
2018-12-05T02:22:01.499Z,3.00
2018-12-05T02:24:27.544Z,3.23
2018-12-05T02:26:53.610Z,3.17
2018-12-05T02:29:19.774Z,3.40
2018-12-05T02:31:46.070Z,3.00
2018-12-05T02:34:12.548Z,3.33
2018-12-05T02:36:38.607Z,2.80
2018-12-05T02:39:06.500Z,2.70
2018-12-05T02:41:32.454Z,2.83
2018-12-05T02:43:58.584Z,2.77
2018-12-05T02:46:24.663Z,2.70
2018-12-05T02:48:50.602Z,2.60
2018-12-05T02:51:16.549Z,2.27
2018-12-05T02:53:42.485Z,2.93
2018-12-05T02:56:08.462Z,2.53
2018-12-05T02:58:34.397Z,2.77
2018-12-05T03:01:00.346Z,3.23
2018-12-05T03:03:26.390Z,3.20
2018-12-05T03:05:52.446Z,2.90
2018-12-05T03:08:18.390Z,3.10
2018-12-05T03:10:44.332Z,2.67
2018-12-05T03:13:10.369Z,2.80
2018-12-05T03:15:36.547Z,3.23
2018-12-05T03:18:02.615Z,3.73
2018-12-05T03:20:28.768Z,3.07
2018-12-05T03:22:54.820Z,3.13
2018-12-05T03:25:20.868Z,2.90
2018-12-05T03:27:46.916Z,3.43
2018-12-05T03:30:12.962Z,2.97
2018-12-05T03:32:39.194Z,3.33
2018-12-05T03:35:05.348Z,3.23
2018-12-05T03:37:31.403Z,3.83
2018-12-05T03:39:57.352Z,2.80
2018-12-05T03:42:23.402Z,2.70
2018-12-05T03:44:49.439Z,2.70
2018-12-05T03:47:15.597Z,3.17
2018-12-05T03:49:43.582Z,3.33
2018-12-05T03:52:09.534Z,3.30
2018-12-05T03:54:35.466Z,3.63
2018-12-05T03:57:01.415Z,3.97
2018-12-05T03:59:27.466Z,3.00
2018-12-05T04:01:53.521Z,3.03
2018-12-05T04:04:19.465Z,2.97
2018-12-05T04:06:45.419Z,3.60
2018-12-05T04:09:11.465Z,3.33
2018-12-05T04:11:37.409Z,3.03
2018-12-05T04:14:03.558Z,3.63
2018-12-05T04:16:29.721Z,3.60
2018-12-05T04:18:55.770Z,3.50
2018-12-05T04:21:21.865Z,3.50
2018-12-05T04:23:47.816Z,3.77
2018-12-05T04:26:13.894Z,3.23
2018-12-05T04:28:40.065Z,3.10
2018-12-05T04:31:06.026Z,3.07
2018-12-05T04:33:32.062Z,3.67
2018-12-05T04:35:58.024Z,3.53
2018-12-05T04:38:24.063Z,3.93
2018-12-05T04:40:50.017Z,3.70
2018-12-05T04:43:15.950Z,4.07
2018-12-05T04:45:42.125Z,3.97
2018-12-05T04:48:08.162Z,3.80
2018-12-05T04:50:34.494Z,3.73
2018-12-05T04:53:00.766Z,3.70
2018-12-05T04:55:26.701Z,3.43
2018-12-05T04:57:52.648Z,4.90
2018-12-05T05:00:18.697Z,3.80
2018-12-05T05:02:44.747Z,4.20
2018-12-05T05:05:10.804Z,3.70
2018-12-05T05:07:36.852Z,4.07
2018-12-05T05:10:03.299Z,4.47
2018-12-05T05:12:29.262Z,4.57
2018-12-05T05:14:55.214Z,4.60
2018-12-05T05:17:21.246Z,4.23
2018-12-05T05:19:47.180Z,4.83
2018-12-05T05:22:13.225Z,4.33
2018-12-05T05:24:39.394Z,5.07
2018-12-05T05:27:05.376Z,4.13
2018-12-05T05:29:31.429Z,4.27
2018-12-05T05:31:57.392Z,5.67
2018-12-05T05:34:23.545Z,5.10
2018-12-05T05:36:49.486Z,4.97
2018-12-05T05:39:15.471Z,4.67
2018-12-05T05:41:41.414Z,4.80
2018-12-05T05:44:07.365Z,5.17
2018-12-05T05:46:33.306Z,4.23
2018-12-05T05:48:59.353Z,4.30
2018-12-05T05:51:25.296Z,5.00
2018-12-05T05:53:51.235Z,5.40
2018-12-05T05:56:17.393Z,5.00
2018-12-05T05:58:43.345Z,4.60
2018-12-05T06:01:09.423Z,5.20
2018-12-05T06:03:35.470Z,5.87
2018-12-05T06:06:01.757Z,5.83
2018-12-05T06:08:27.690Z,5.17
2018-12-05T06:10:53.753Z,5.33
2018-12-05T06:13:19.698Z,5.67
2018-12-05T06:15:45.746Z,5.00
2018-12-05T06:18:11.895Z,4.63
2018-12-05T06:20:37.958Z,5.30
2018-12-05T06:23:03.989Z,5.27
2018-12-05T06:25:30.161Z,6.00
2018-12-05T06:27:56.101Z,7.07
2018-12-05T06:30:22.159Z,5.07
2018-12-05T06:32:48.216Z,5.47
2018-12-05T06:35:14.480Z,4.40
2018-12-05T06:37:40.522Z,4.67
2018-12-05T06:40:06.671Z,4.87
2018-12-05T06:42:32.832Z,5.63
2018-12-05T06:44:58.780Z,5.10
2018-12-05T06:47:24.946Z,4.50
2018-12-05T06:49:50.982Z,5.50
2018-12-05T06:52:16.921Z,5.20
2018-12-05T06:54:42.890Z,5.80
2018-12-05T06:57:08.829Z,5.63
2018-12-05T06:59:34.769Z,5.33
2018-12-05T07:02:00.829Z,5.20
2018-12-05T07:04:26.802Z,4.40
2018-12-05T07:06:52.849Z,4.07
2018-12-05T07:09:18.902Z,4.63
2018-12-05T07:11:44.866Z,4.63
2018-12-05T07:14:10.820Z,4.53
2018-12-05T07:16:36.765Z,4.00
2018-12-05T07:19:02.930Z,4.07
2018-12-05T07:21:28.897Z,4.13
2018-12-05T07:23:54.842Z,4.27
2018-12-05T07:26:20.898Z,4.27
2018-12-05T07:28:46.841Z,4.50
2018-12-05T07:31:12.898Z,4.87
2018-12-05T07:33:38.846Z,3.60
2018-12-05T07:36:04.897Z,5.30
2018-12-05T07:38:30.846Z,4.77
2018-12-05T07:40:56.988Z,4.23
2018-12-05T07:43:23.063Z,4.30
2018-12-05T07:45:49.006Z,4.57
2018-12-05T07:48:15.115Z,3.90
2018-12-05T07:50:41.163Z,3.77
2018-12-05T07:53:07.093Z,4.30
2018-12-05T07:55:33.141Z,4.80
2018-12-05T07:57:59.188Z,4.50
2018-12-05T08:00:25.242Z,5.07
2018-12-05T08:02:51.185Z,4.40
2018-12-05T08:05:17.149Z,7.83
2018-12-05T08:07:43.844Z,5.47
2018-12-05T08:10:09.781Z,4.87
2018-12-05T08:12:35.756Z,4.27
2018-12-05T08:15:02.023Z,4.07
2018-12-05T08:17:27.971Z,4.90
2018-12-05T08:19:54.002Z,3.80
2018-12-05T08:22:19.946Z,3.80
2018-12-05T08:24:45.910Z,4.17
2018-12-05T08:27:11.855Z,5.13
2018-12-05T08:29:38.013Z,5.10
2018-12-05T08:32:05.467Z,4.60
2018-12-05T08:34:31.670Z,3.60
2018-12-05T08:36:57.620Z,4.30
2018-12-05T08:39:23.568Z,3.93
2018-12-05T08:41:49.522Z,3.93
2018-12-05T08:44:15.581Z,4.17
2018-12-05T08:46:41.642Z,3.77
2018-12-05T08:49:07.703Z,4.10
2018-12-05T08:51:33.865Z,3.80
2018-12-05T08:53:59.813Z,4.40
2018-12-05T08:56:25.769Z,3.70
2018-12-05T08:58:51.838Z,3.60
2018-12-05T09:01:17.879Z,4.30
2018-12-05T09:03:43.824Z,4.47
2018-12-05T09:06:09.763Z,4.70
2018-12-05T09:08:35.806Z,4.47
2018-12-05T09:11:01.848Z,5.30
2018-12-05T09:13:27.885Z,4.60
2018-12-05T09:15:54.090Z,4.53
2018-12-05T09:18:20.037Z,3.83
2018-12-05T09:20:46.826Z,4.27
2018-12-05T09:23:13.484Z,3.20
2018-12-05T09:25:39.475Z,4.37
2018-12-05T09:28:05.420Z,3.97
2018-12-05T09:30:32.223Z,4.30
2018-12-05T09:32:58.161Z,3.53
2018-12-05T09:35:24.099Z,4.63
2018-12-05T09:37:50.034Z,3.33
2018-12-05T09:40:16.093Z,4.27
2018-12-05T09:42:42.368Z,4.50
2018-12-05T09:45:10.240Z,4.40
2018-12-05T09:47:36.198Z,4.20
2018-12-05T09:50:03.057Z,4.63
2018-12-05T09:52:29.002Z,4.13
2018-12-05T09:54:55.060Z,4.27
2018-12-05T09:57:21.141Z,4.90
2018-12-05T09:59:47.081Z,4.23
2018-12-05T10:02:13.116Z,3.97
2018-12-05T10:04:39.077Z,4.10
2018-12-05T10:07:05.023Z,4.00
2018-12-05T10:09:30.973Z,4.27
2018-12-05T10:11:57.021Z,4.40
2018-12-05T10:14:22.970Z,4.27
2018-12-05T10:16:49.006Z,3.90
2018-12-05T10:19:14.946Z,4.77
2018-12-05T10:21:40.889Z,4.10
2018-12-05T10:24:06.857Z,3.90
2018-12-05T10:26:32.802Z,4.70
2018-12-05T10:28:58.765Z,4.57
2018-12-05T10:31:24.934Z,4.20
2018-12-05T10:33:50.875Z,4.43
2018-12-05T10:36:16.825Z,4.73
2018-12-05T10:38:42.771Z,4.63
2018-12-05T10:41:08.857Z,4.27
2018-12-05T10:43:34.807Z,4.60
2018-12-05T10:46:00.889Z,4.30
2018-12-05T10:48:26.937Z,4.07
2018-12-05T10:50:52.985Z,4.67
2018-12-05T10:53:19.154Z,4.27
2018-12-05T10:55:45.402Z,4.67
2018-12-05T10:58:11.361Z,4.53
2018-12-05T11:00:43.948Z,4.50
2018-12-05T11:03:14.325Z,4.33
2018-12-05T11:05:46.829Z,3.87
2018-12-05T11:08:21.280Z,4.30
2018-12-05T11:14:01.417Z,5.17
2018-12-05T11:16:33.392Z,4.37
2018-12-05T11:19:05.709Z,4.80
2018-12-05T11:21:37.703Z,4.00
2018-12-05T11:24:07.910Z,5.07
2018-12-05T11:26:34.181Z,4.77
2018-12-05T11:29:00.274Z,4.70
2018-12-05T11:31:26.240Z,3.77
2018-12-05T11:33:52.181Z,5.87
2018-12-05T11:36:18.237Z,4.50
2018-12-05T11:38:44.230Z,5.00
2018-12-05T11:41:10.429Z,5.00
2018-12-05T11:43:36.497Z,5.47
2018-12-05T11:46:02.671Z,5.10
2018-12-05T11:48:28.734Z,4.60
2018-12-05T11:50:54.817Z,4.77
2018-12-05T11:53:20.773Z,5.13
2018-12-05T11:55:46.755Z,4.50
2018-12-05T11:58:12.832Z,4.67
2018-12-05T12:00:39.096Z,4.70
2018-12-05T12:03:05.148Z,4.67
2018-12-05T12:05:31.109Z,5.07
2018-12-05T12:07:57.179Z,5.77
2018-12-05T12:10:25.298Z,4.83
2018-12-05T12:12:57.682Z,5.60
2018-12-05T12:15:23.731Z,4.30
2018-12-05T12:17:49.908Z,5.10
2018-12-05T12:20:15.958Z,5.40
2018-12-05T12:22:42.074Z,4.53
2018-12-05T12:25:08.241Z,5.50
2018-12-05T12:27:34.326Z,4.40
2018-12-05T12:30:00.273Z,5.37
2018-12-05T12:32:26.337Z,5.70
2018-12-05T12:34:52.412Z,5.43
2018-12-05T12:37:18.356Z,5.27
2018-12-05T12:39:44.418Z,6.20
2018-12-05T12:42:10.582Z,5.33
2018-12-05T12:44:36.545Z,6.00
2018-12-05T12:47:02.701Z,5.50
2018-12-05T12:49:28.649Z,4.47
2018-12-05T12:51:54.593Z,5.10
2018-12-05T12:54:20.553Z,5.53
2018-12-05T12:56:46.602Z,5.47
2018-12-05T12:59:12.650Z,4.33
2018-12-05T13:01:38.601Z,4.30
2018-12-05T13:04:04.751Z,5.00
2018-12-05T13:06:30.711Z,4.90
2018-12-05T13:08:56.780Z,5.60
2018-12-05T13:11:22.719Z,5.63
2018-12-05T13:13:48.877Z,4.30
2018-12-05T13:16:14.812Z,5.27
2018-12-05T13:18:40.768Z,4.93
2018-12-05T13:21:06.817Z,5.43
2018-12-05T13:23:33.003Z,5.30
2018-12-05T13:25:58.949Z,5.47
2018-12-05T13:28:24.917Z,5.27
2018-12-05T13:30:51.102Z,5.87
2018-12-05T13:33:17.783Z,5.43
2018-12-05T13:35:43.717Z,5.33
2018-12-05T13:38:09.677Z,5.70
2018-12-05T13:40:35.740Z,6.40
2018-12-05T13:43:01.918Z,6.87
2018-12-05T13:45:27.865Z,6.43
2018-12-05T13:47:53.913Z,6.13
2018-12-05T13:50:20.071Z,7.37
2018-12-05T13:52:46.138Z,6.37
2018-12-05T13:55:12.294Z,5.77
2018-12-05T13:57:38.338Z,7.40
2018-12-05T14:00:07.020Z,6.93
2018-12-05T14:02:32.968Z,7.50
2018-12-05T14:04:58.933Z,6.87
2018-12-05T14:07:24.881Z,6.37
2018-12-05T14:09:51.050Z,6.23
2018-12-05T14:12:23.151Z,6.47
2018-12-05T14:14:49.109Z,6.87
2018-12-05T14:17:15.165Z,7.23
2018-12-05T14:19:41.107Z,7.33
2018-12-05T14:22:07.277Z,7.13
2018-12-05T14:24:33.355Z,7.93
2018-12-05T14:26:59.294Z,7.83
2018-12-05T14:29:25.348Z,7.37
2018-12-05T14:31:51.391Z,6.57
2018-12-05T14:34:17.353Z,7.07
2018-12-05T14:36:43.322Z,7.63
2018-12-05T14:39:09.277Z,6.67
2018-12-05T14:41:35.224Z,7.43
2018-12-05T14:44:01.277Z,6.83
2018-12-05T14:46:27.225Z,7.10
2018-12-05T14:48:53.177Z,7.40
2018-12-05T14:51:19.145Z,7.77
2018-12-05T14:53:45.090Z,6.23
2018-12-05T14:56:11.058Z,6.77
2018-12-05T14:58:37.100Z,6.67
2018-12-05T15:01:03.288Z,7.00
2018-12-05T15:03:29.247Z,7.80
2018-12-05T15:05:55.326Z,7.00
2018-12-05T15:08:21.380Z,5.97
2018-12-05T15:10:47.435Z,6.17
2018-12-05T15:13:13.608Z,6.57
2018-12-05T15:15:39.561Z,6.67
2018-12-05T15:18:05.640Z,6.43
2018-12-05T15:20:31.585Z,7.03
2018-12-05T15:22:57.565Z,7.10
2018-12-05T15:25:24.541Z,7.20
2018-12-05T15:27:50.709Z,7.07
2018-12-05T15:30:16.761Z,7.30
2018-12-05T15:32:42.736Z,7.30
2018-12-05T15:35:08.745Z,6.83
2018-12-05T15:37:34.907Z,6.80
2018-12-05T15:40:01.130Z,7.70
2018-12-05T15:42:27.297Z,7.77
2018-12-05T15:44:53.287Z,7.93
2018-12-05T15:47:19.394Z,7.43
2018-12-05T15:49:45.496Z,7.07
2018-12-05T15:52:11.459Z,6.67
2018-12-05T15:54:37.715Z,8.10
2018-12-05T15:57:09.952Z,6.53
2018-12-05T15:59:32.105Z,6.70
2018-12-05T16:01:58.082Z,7.37
2018-12-05T16:04:24.229Z,7.40
2018-12-05T16:06:50.321Z,7.40
2018-12-05T16:09:16.395Z,7.20
2018-12-05T16:11:42.470Z,7.83
2018-12-05T16:14:08.441Z,8.53
2018-12-05T16:16:34.465Z,6.97
2018-12-05T16:19:00.440Z,7.30
2018-12-05T16:21:26.377Z,7.30
2018-12-05T16:23:52.314Z,7.43
2018-12-05T16:26:18.478Z,7.47
2018-12-05T16:28:44.437Z,9.20
2018-12-05T16:31:10.376Z,8.30
2018-12-05T16:33:36.326Z,9.60
2018-12-05T16:36:02.420Z,8.83
2018-12-05T16:38:28.369Z,9.87
2018-12-05T16:40:54.423Z,13.07
2018-12-05T16:43:20.385Z,11.80
2018-12-05T16:45:46.335Z,12.40
2018-12-05T16:48:12.293Z,7.67
2018-12-05T16:50:38.286Z,8.10
2018-12-05T16:53:04.388Z,7.60
2018-12-05T16:55:30.335Z,7.77
2018-12-05T16:57:56.410Z,7.23
2018-12-05T17:00:22.582Z,7.60
2018-12-05T17:02:48.553Z,10.50
2018-12-05T17:05:14.628Z,8.37
2018-12-05T17:07:40.569Z,7.93
2018-12-05T17:10:06.771Z,7.57
2018-12-05T17:12:32.818Z,7.13
2018-12-05T17:14:58.808Z,7.20
2018-12-05T17:17:24.769Z,8.00
2018-12-05T17:19:50.833Z,7.10
2018-12-05T17:22:16.903Z,7.80
2018-12-05T17:24:42.958Z,7.67
2018-12-05T17:27:08.896Z,7.67
2018-12-05T17:29:34.949Z,7.97
2018-12-05T17:32:01.010Z,7.10
2018-12-05T17:34:27.073Z,7.50
2018-12-05T17:36:53.043Z,8.13
2018-12-05T17:39:19.111Z,7.77
2018-12-05T17:41:45.049Z,8.07
2018-12-05T17:44:11.114Z,7.83
2018-12-05T17:46:37.165Z,6.73
2018-12-05T17:49:03.650Z,7.80
2018-12-05T17:51:29.688Z,7.93
2018-12-05T17:53:55.642Z,8.20
2018-12-05T17:56:21.749Z,7.33
2018-12-05T17:58:48.967Z,7.37
2018-12-05T18:01:15.784Z,7.03
2018-12-05T18:03:43.721Z,8.17
2018-12-05T18:06:09.962Z,8.20
2018-12-05T18:08:35.937Z,7.80
2018-12-05T18:11:01.891Z,8.20
2018-12-05T18:13:27.826Z,7.80
2018-12-05T18:15:53.765Z,9.00
2018-12-05T18:18:19.701Z,7.70
2018-12-05T18:20:45.753Z,7.73
2018-12-05T18:23:11.822Z,9.00
2018-12-05T18:25:37.766Z,8.90
2018-12-05T18:28:04.026Z,8.30
2018-12-05T18:30:29.987Z,8.23
2018-12-05T18:32:55.927Z,8.47
2018-12-05T18:35:22.434Z,8.87
2018-12-05T18:37:48.473Z,9.00
2018-12-05T18:40:14.419Z,9.43
2018-12-05T18:42:40.385Z,8.63
2018-12-05T18:45:07.084Z,8.47
2018-12-05T18:47:33.144Z,8.73
2018-12-05T18:49:59.106Z,8.93
2018-12-05T18:52:25.212Z,8.23
2018-12-05T18:54:51.161Z,7.33
2018-12-05T18:57:17.308Z,8.23
2018-12-05T18:59:43.261Z,8.07
2018-12-05T19:02:09.734Z,7.60
2018-12-05T19:04:35.833Z,7.80
2018-12-05T19:07:01.934Z,7.63
2018-12-05T19:09:27.901Z,8.20
2018-12-05T19:11:54.074Z,7.37
2018-12-05T19:14:26.305Z,8.37
2018-12-05T19:16:52.242Z,7.83
2018-12-05T19:19:18.297Z,8.60
2018-12-05T19:21:44.238Z,7.43
2018-12-05T19:24:10.180Z,7.30
2018-12-05T19:26:36.311Z,8.10
2018-12-05T19:29:02.591Z,6.97
2018-12-05T19:31:28.666Z,7.93
2018-12-05T19:33:54.963Z,8.03
2018-12-05T19:36:20.915Z,7.97
2018-12-05T19:38:46.856Z,7.53
2018-12-05T19:41:12.906Z,7.93
2018-12-05T19:43:38.846Z,8.10
2018-12-05T19:46:05.027Z,8.60
2018-12-05T19:48:31.180Z,7.93
2018-12-05T19:50:57.229Z,8.43
2018-12-05T19:53:23.483Z,7.47
2018-12-05T19:55:49.423Z,7.90
2018-12-05T19:58:15.373Z,7.47
2018-12-05T20:00:41.565Z,8.60
2018-12-05T20:03:07.522Z,8.20
2018-12-05T20:05:33.488Z,8.20
2018-12-05T20:07:59.437Z,8.27
2018-12-05T20:10:25.506Z,7.97
2018-12-05T20:12:51.453Z,8.13
2018-12-05T20:15:17.512Z,9.07
2018-12-05T20:17:43.460Z,7.87
2018-12-05T20:20:09.726Z,8.13
2018-12-05T20:22:35.671Z,8.17
2018-12-05T20:25:01.721Z,9.03
2018-12-05T20:27:27.671Z,9.17
2018-12-05T20:29:53.624Z,9.50
2018-12-05T20:32:19.587Z,8.63
2018-12-05T20:34:45.584Z,10.33
2018-12-05T20:37:11.738Z,9.03
2018-12-05T20:39:37.676Z,8.60
2018-12-05T20:42:03.931Z,8.33
2018-12-05T20:44:30.207Z,8.50
2018-12-05T20:46:56.269Z,7.97
2018-12-05T20:49:22.237Z,7.73
2018-12-05T20:51:48.240Z,7.93
2018-12-05T20:54:14.280Z,8.93
2018-12-05T20:56:40.241Z,8.20
2018-12-05T20:59:06.440Z,9.30
2018-12-05T21:01:32.733Z,7.80
2018-12-05T21:03:58.708Z,9.27
2018-12-05T21:06:24.865Z,8.73
2018-12-05T21:09:01.186Z,7.93
2018-12-05T21:11:27.345Z,7.27
2018-12-05T21:13:53.426Z,7.13
2018-12-05T21:16:19.473Z,7.93
2018-12-05T21:18:45.413Z,8.70
2018-12-05T21:21:11.499Z,7.83
2018-12-05T21:23:37.545Z,7.00
2018-12-05T21:26:03.708Z,7.13
2018-12-05T21:28:29.768Z,7.70
2018-12-05T21:30:55.832Z,8.13
2018-12-05T21:33:21.981Z,7.37
2018-12-05T21:35:47.922Z,8.73
2018-12-05T21:38:13.859Z,7.87
2018-12-05T21:40:39.998Z,7.70
2018-12-05T21:43:06.053Z,7.93
2018-12-05T21:45:32.109Z,8.30
2018-12-05T21:47:59.126Z,8.60
2018-12-05T21:50:25.070Z,8.23
2018-12-05T21:52:52.005Z,8.13
2018-12-05T21:55:18.057Z,8.20
2018-12-05T21:57:44.067Z,8.07
2018-12-05T22:00:10.313Z,9.60
2018-12-05T22:02:36.426Z,7.73
2018-12-05T22:05:02.576Z,8.23
2018-12-05T22:07:28.557Z,7.50
2018-12-05T22:09:54.629Z,8.20
2018-12-05T22:12:20.581Z,8.57
2018-12-05T22:14:46.621Z,8.10
2018-12-05T22:17:12.562Z,8.77
2018-12-05T22:19:38.550Z,9.57
2018-12-05T22:22:04.597Z,8.37
2018-12-05T22:24:30.750Z,8.27
2018-12-05T22:26:56.706Z,8.37
2018-12-05T22:29:22.645Z,8.17
2018-12-05T22:31:48.615Z,8.50
2018-12-05T22:34:14.576Z,8.13
2018-12-05T22:36:40.522Z,8.73
2018-12-05T22:39:06.862Z,8.23
2018-12-05T22:41:32.920Z,8.17
2018-12-05T22:43:58.870Z,9.03
2018-12-05T22:46:24.910Z,9.00
2018-12-05T22:48:50.992Z,8.00
2018-12-05T22:51:16.929Z,8.13
2018-12-05T22:53:42.873Z,7.90
2018-12-05T22:56:09.014Z,8.63
2018-12-05T22:58:34.950Z,8.40
2018-12-05T23:01:00.997Z,8.03
2018-12-05T23:03:26.934Z,7.40
2018-12-05T23:05:52.981Z,8.07
2018-12-05T23:08:18.931Z,7.80
2018-12-05T23:10:44.991Z,8.10
2018-12-05T23:13:11.071Z,8.23
2018-12-05T23:15:37.026Z,8.40
2018-12-05T23:18:03.069Z,8.17
2018-12-05T23:20:29.117Z,8.20
2018-12-05T23:22:55.055Z,8.70
2018-12-05T23:25:21.205Z,8.63
2018-12-05T23:27:47.244Z,8.93
2018-12-05T23:30:13.284Z,9.50
2018-12-05T23:32:39.358Z,9.70
2018-12-05T23:35:05.407Z,8.60
2018-12-05T23:37:31.340Z,9.57
2018-12-05T23:39:57.286Z,7.90
2018-12-05T23:42:23.336Z,9.57
2018-12-05T23:44:49.405Z,8.50
2018-12-05T23:47:15.450Z,9.80
2018-12-05T23:49:41.380Z,9.93
2018-12-05T23:52:07.320Z,9.40
2018-12-05T23:54:33.451Z,8.57
2018-12-05T23:56:59.648Z,7.63
2018-12-05T23:59:25.589Z,8.40
